Portada
METAR-TAF:

METAR-TAF

Aeropuertos :

Orange, Francia

latitud: 44-08N, longitud: 004-50E, altitud: 60 m

Observación

El informe se hizo hace 38 minutos, a las 03:00 UTC
Viento 3 kt del norte-noroeste
Temperatura 16°C
Humedad 82%
Presión 1016 hPa
Visibilidad 10 km o más
lluvia ligera

METAR: LFMO 160300Z AUTO 34003KT 9999 -RA NSC 16/13 Q1016 NOSIG

Hora: 05:38 (03:38 UTC)

Pronóstico

El informe se hizo hace 1 hora y 38 minutos, a las 02:00 UTC
Pronóstico válido del 16 a las 03 UTC al 17 a las 03 UTC
Viento 5 kt del norte-noroeste
Visibilidad 10 km o más
sin nubes por debajo de 1500 m y sin presencia de cumulonimbus.
Evolucionando progresivamente
del 16 a las 20 UTC al 16 a las 23 UTC
Visibilidad: 4000 m
neblina
Probabilidad 40% :
Temporalmente
del 17 a las 00 UTC al 17 a las 03 UTC
Visibilidad: 0800 m
niebla en bancos

TAF: LFMO 160200Z 1603/1703 34005KT CAVOK BECMG 1620/1623 4000 BR PROB40 TEMPO 1700/1703 0800 BCFG

Observaciones y pronósticos meteorológicos de más de 4000 aeropuertos (mensajes METAR y TAF).

Los puntos amarillos y rojos representan las estaciones disponibles.

Ponga el ratón en el punto deseado para ver el nombre de la estación.

Haga clic para ver las observaciones y los pronósticos meteorológicos.

Para cambiar el mapa : haga clic en los botones verdes con una cruz de color negro para hacer un zoom, en el botón verde con un guión para alejar o en las flechas verdes para mapas adyacentes.


METAR-TAF: